createdAt,value
2018-01-07T00:00:22.880Z,0
2018-01-07T00:01:31.903Z,0
2018-01-07T00:02:40.850Z,0
2018-01-07T00:03:50.062Z,0
2018-01-07T00:04:59.007Z,0
2018-01-07T00:06:08.462Z,0
2018-01-07T00:07:17.674Z,0
2018-01-07T00:08:26.880Z,0
2018-01-07T00:09:36.086Z,0
2018-01-07T00:10:45.294Z,0
2018-01-07T00:11:54.763Z,0
2018-01-07T00:13:03.717Z,0
2018-01-07T00:14:12.915Z,0
2018-01-07T00:15:21.863Z,0
2018-01-07T00:16:30.826Z,0
2018-01-07T00:17:40.812Z,0
2018-01-07T00:18:50.014Z,0
2018-01-07T00:19:59.491Z,0
2018-01-07T00:21:08.204Z,0
2018-01-07T00:22:17.412Z,0
2018-01-07T00:23:26.442Z,0
2018-01-07T00:24:35.393Z,0
2018-01-07T00:25:44.343Z,0
2018-01-07T00:26:53.308Z,0
2018-01-07T00:28:02.261Z,0
2018-01-07T00:29:11.719Z,0
2018-01-07T00:30:21.215Z,0
2018-01-07T00:31:29.900Z,0
2018-01-07T00:32:38.590Z,0
2018-01-07T00:33:47.528Z,0
2018-01-07T00:34:56.492Z,0
2018-01-07T00:36:05.426Z,0
2018-01-07T00:37:14.621Z,0
2018-01-07T00:38:23.563Z,0
2018-01-07T00:39:32.762Z,0
2018-01-07T00:40:41.961Z,0
2018-01-07T00:41:51.191Z,0
2018-01-07T00:43:00.661Z,0
2018-01-07T00:44:09.336Z,0
2018-01-07T00:45:18.829Z,0
2018-01-07T00:46:28.020Z,0
2018-01-07T00:47:36.961Z,0
2018-01-07T00:48:46.442Z,0
2018-01-07T00:49:55.651Z,0
2018-01-07T00:51:04.324Z,0
2018-01-07T00:52:13.530Z,0
2018-01-07T00:53:22.462Z,0
2018-01-07T00:54:31.404Z,0
2018-01-07T00:55:40.599Z,0
2018-01-07T00:56:50.760Z,0
2018-01-07T00:57:59.446Z,0
2018-01-07T00:59:09.193Z,0
2018-01-07T01:00:18.708Z,0
2018-01-07T01:01:27.912Z,0
2018-01-07T01:02:36.851Z,0
2018-01-07T01:03:45.781Z,0
2018-01-07T01:04:54.975Z,0
2018-01-07T01:06:03.661Z,0
2018-01-07T01:07:12.875Z,0
2018-01-07T01:08:21.555Z,0
2018-01-07T01:09:31.029Z,0
2018-01-07T01:10:40.505Z,0
2018-01-07T01:11:49.963Z,0
2018-01-07T01:12:58.904Z,0
2018-01-07T01:14:07.604Z,0
2018-01-07T01:15:16.828Z,0
2018-01-07T01:16:25.774Z,0
2018-01-07T01:17:34.979Z,0
2018-01-07T01:18:44.443Z,0
2018-01-07T01:19:53.375Z,0
2018-01-07T01:21:02.054Z,0
2018-01-07T01:22:11.258Z,0
2018-01-07T01:23:20.197Z,0
2018-01-07T01:24:28.882Z,0
2018-01-07T01:25:38.329Z,0
2018-01-07T01:26:47.267Z,0
2018-01-07T01:27:55.937Z,0
2018-01-07T01:29:04.883Z,0
2018-01-07T01:30:13.557Z,0
2018-01-07T01:31:22.768Z,0
2018-01-07T01:32:31.966Z,0
2018-01-07T01:33:40.909Z,0
2018-01-07T01:34:50.110Z,0
2018-01-07T01:35:59.577Z,0
2018-01-07T01:37:09.297Z,0
2018-01-07T01:38:18.231Z,0
2018-01-07T01:39:27.421Z,0
2018-01-07T01:40:36.371Z,0
2018-01-07T01:41:46.368Z,0
2018-01-07T01:42:55.306Z,0
2018-01-07T01:44:04.250Z,0
2018-01-07T01:45:12.924Z,0
2018-01-07T01:46:22.115Z,0
2018-01-07T01:47:30.795Z,0
2018-01-07T01:48:39.744Z,0
2018-01-07T01:49:49.198Z,0
2018-01-07T01:50:58.665Z,0
2018-01-07T01:52:07.874Z,0
2018-01-07T01:53:16.569Z,0
2018-01-07T01:54:25.243Z,0
2018-01-07T01:55:34.187Z,0
2018-01-07T01:56:43.120Z,0
2018-01-07T01:57:52.054Z,0
2018-01-07T01:59:00.995Z,0
2018-01-07T02:00:10.528Z,0
2018-01-07T02:01:19.714Z,0
2018-01-07T02:02:28.660Z,0
2018-01-07T02:03:37.594Z,0
2018-01-07T02:04:46.802Z,0
2018-01-07T02:05:55.989Z,0
2018-01-07T02:07:04.917Z,0
2018-01-07T02:08:13.852Z,0
2018-01-07T02:09:22.533Z,0
2018-01-07T02:10:31.999Z,0
2018-01-07T02:11:41.207Z,0
2018-01-07T02:12:50.407Z,0
2018-01-07T02:13:59.609Z,0
2018-01-07T02:15:09.078Z,0
2018-01-07T02:16:17.754Z,0
2018-01-07T02:17:27.483Z,0
2018-01-07T02:18:36.938Z,0
2018-01-07T02:19:46.417Z,0
2018-01-07T02:20:55.610Z,0
2018-01-07T02:22:05.339Z,0
2018-01-07T02:23:14.795Z,0
2018-01-07T02:24:23.731Z,0
2018-01-07T02:25:32.709Z,0
2018-01-07T02:26:41.383Z,0
2018-01-07T02:27:50.844Z,0
2018-01-07T02:29:00.038Z,0
2018-01-07T02:30:09.253Z,0
2018-01-07T02:31:19.035Z,0
2018-01-07T02:32:28.231Z,0
2018-01-07T02:33:37.686Z,0
2018-01-07T02:34:46.649Z,0
2018-01-07T02:35:56.105Z,0
2018-01-07T02:37:05.823Z,0
2018-01-07T02:38:14.767Z,0
2018-01-07T02:39:24.232Z,0
2018-01-07T02:40:33.720Z,0
2018-01-07T02:41:43.173Z,0
2018-01-07T02:42:52.890Z,0
2018-01-07T02:44:02.086Z,0
2018-01-07T02:45:11.302Z,0
2018-01-07T02:46:21.023Z,0
2018-01-07T02:47:29.965Z,0
2018-01-07T02:48:39.179Z,0
2018-01-07T02:49:48.650Z,0
2018-01-07T02:50:58.128Z,0
2018-01-07T02:52:07.595Z,0
2018-01-07T02:53:16.528Z,0
2018-01-07T02:54:25.994Z,0
2018-01-07T02:55:34.674Z,0
2018-01-07T02:56:44.184Z,0
2018-01-07T02:57:53.132Z,0
2018-01-07T02:59:02.614Z,0
2018-01-07T03:00:11.810Z,0
2018-01-07T03:01:21.279Z,0
2018-01-07T03:02:30.512Z,0
2018-01-07T03:03:39.735Z,0
2018-01-07T03:04:48.663Z,0
2018-01-07T03:05:57.618Z,0
2018-01-07T03:07:06.283Z,0
2018-01-07T03:08:14.955Z,0
2018-01-07T03:09:24.666Z,0
2018-01-07T03:10:33.598Z,0
2018-01-07T03:11:42.797Z,0
2018-01-07T03:12:51.755Z,0
2018-01-07T03:14:00.695Z,0
2018-01-07T03:15:09.955Z,0
2018-01-07T03:16:19.437Z,0
2018-01-07T03:17:28.183Z,0
2018-01-07T03:18:37.640Z,0
2018-01-07T03:19:46.326Z,0
2018-01-07T03:20:55.527Z,0
2018-01-07T03:22:04.724Z,0
2018-01-07T03:23:14.188Z,0
2018-01-07T03:24:22.865Z,0
2018-01-07T03:25:31.545Z,0
2018-01-07T03:26:40.226Z,0
2018-01-07T03:27:49.423Z,0
2018-01-07T03:28:59.141Z,0
2018-01-07T03:30:08.093Z,0
2018-01-07T03:31:17.295Z,0
2018-01-07T03:32:26.487Z,0
2018-01-07T03:33:35.165Z,0
2018-01-07T03:34:44.105Z,0
2018-01-07T03:35:53.567Z,0
2018-01-07T03:37:03.020Z,0
2018-01-07T03:38:11.956Z,0
2018-01-07T03:39:20.896Z,0
2018-01-07T03:40:30.364Z,0
2018-01-07T03:41:39.549Z,0
2018-01-07T03:42:48.742Z,0
2018-01-07T03:43:57.934Z,0
2018-01-07T03:45:07.393Z,0
2018-01-07T03:46:16.852Z,0
2018-01-07T03:47:26.048Z,0
2018-01-07T03:48:34.725Z,0
2018-01-07T03:49:43.656Z,0
2018-01-07T03:50:52.586Z,0
2018-01-07T03:52:01.526Z,0
2018-01-07T03:53:10.460Z,0
2018-01-07T03:54:19.149Z,0
2018-01-07T03:55:28.102Z,0
2018-01-07T03:56:37.564Z,0
2018-01-07T03:57:46.245Z,0
2018-01-07T03:58:55.179Z,0
2018-01-07T04:00:04.115Z,0
2018-01-07T04:01:13.040Z,0
2018-01-07T04:02:22.236Z,0
2018-01-07T04:03:31.169Z,0
2018-01-07T04:04:40.134Z,0
2018-01-07T04:05:49.595Z,0
2018-01-07T04:06:59.045Z,0
2018-01-07T04:08:08.236Z,0
2018-01-07T04:09:17.171Z,0
2018-01-07T04:10:26.640Z,0
2018-01-07T04:11:35.834Z,0
2018-01-07T04:12:45.609Z,0
2018-01-07T04:13:55.070Z,0
2018-01-07T04:15:03.739Z,0
2018-01-07T04:16:12.930Z,0
2018-01-07T04:17:22.391Z,0
2018-01-07T04:18:31.884Z,0
2018-01-07T04:19:40.819Z,0
2018-01-07T04:20:49.769Z,0
2018-01-07T04:21:59.226Z,0
2018-01-07T04:23:08.160Z,0
2018-01-07T04:24:17.107Z,0
2018-01-07T04:25:26.568Z,0
2018-01-07T04:26:35.525Z,0
2018-01-07T04:27:44.212Z,0
2018-01-07T04:28:53.147Z,0
2018-01-07T04:30:02.087Z,0
2018-01-07T04:31:10.762Z,0
2018-01-07T04:32:19.716Z,0
2018-01-07T04:33:28.914Z,0
2018-01-07T04:34:38.113Z,0
2018-01-07T04:35:47.594Z,0
2018-01-07T04:36:56.555Z,0
2018-01-07T04:38:05.757Z,0
2018-01-07T04:39:14.955Z,0
2018-01-07T04:40:23.637Z,0
2018-01-07T04:41:33.088Z,0
2018-01-07T04:42:41.783Z,0
2018-01-07T04:43:50.999Z,0
2018-01-07T04:44:59.944Z,0
2018-01-07T04:46:08.888Z,0
2018-01-07T04:47:17.900Z,0
2018-01-07T04:48:26.852Z,0
2018-01-07T04:49:35.789Z,0
2018-01-07T04:50:44.721Z,0
2018-01-07T04:51:53.429Z,0
2018-01-07T04:53:02.124Z,0
2018-01-07T04:54:11.057Z,0
2018-01-07T04:55:20.301Z,0
2018-01-07T04:56:29.790Z,0
2018-01-07T04:57:39.267Z,0
2018-01-07T04:59:20.291Z,0
2018-01-07T05:00:29.764Z,0
2018-01-07T05:01:38.703Z,0
2018-01-07T05:02:47.713Z,0
2018-01-07T05:03:56.903Z,0
2018-01-07T05:05:05.836Z,0
2018-01-07T05:06:15.292Z,0
2018-01-07T05:07:23.984Z,0
2018-01-07T05:08:32.918Z,0
2018-01-07T05:09:41.859Z,0
2018-01-07T05:10:50.805Z,0
2018-01-07T05:12:00.279Z,0
2018-01-07T05:13:08.950Z,0
2018-01-07T05:14:18.431Z,0
2018-01-07T05:15:27.373Z,0
2018-01-07T05:16:36.575Z,0
2018-01-07T05:17:45.258Z,0
2018-01-07T05:18:54.723Z,0
2018-01-07T05:20:04.187Z,0
2018-01-07T05:21:13.124Z,0
2018-01-07T05:22:22.086Z,0
2018-01-07T05:23:31.029Z,0
2018-01-07T05:24:39.968Z,0
2018-01-07T05:25:49.162Z,0
2018-01-07T05:26:58.360Z,0
2018-01-07T05:28:07.295Z,0
2018-01-07T05:29:15.965Z,0
2018-01-07T05:30:25.153Z,0
2018-01-07T05:31:34.362Z,0
2018-01-07T05:32:43.297Z,0
2018-01-07T05:33:52.565Z,0
2018-01-07T05:35:01.774Z,0
2018-01-07T05:36:10.985Z,0
2018-01-07T05:37:20.265Z,0
2018-01-07T05:38:29.482Z,0
2018-01-07T05:39:38.673Z,0
2018-01-07T05:40:48.658Z,0
2018-01-07T05:41:57.854Z,0
2018-01-07T05:43:07.325Z,0
2018-01-07T05:44:16.011Z,0
2018-01-07T05:45:25.225Z,0
2018-01-07T05:46:34.168Z,0
2018-01-07T05:47:43.435Z,0
2018-01-07T05:48:52.645Z,0
2018-01-07T05:50:01.596Z,0
2018-01-07T05:51:10.286Z,0
2018-01-07T05:52:19.497Z,0
2018-01-07T05:53:28.444Z,0
2018-01-07T05:54:37.657Z,0
2018-01-07T05:55:47.409Z,0
2018-01-07T05:56:56.626Z,0
2018-01-07T05:58:06.079Z,0
2018-01-07T05:59:15.792Z,0
2018-01-07T06:00:24.997Z,0
2018-01-07T06:01:33.938Z,0
2018-01-07T06:02:43.150Z,0
2018-01-07T06:03:52.363Z,0
2018-01-07T06:05:01.557Z,0
2018-01-07T06:06:10.766Z,0
2018-01-07T06:07:19.704Z,0
2018-01-07T06:08:28.651Z,0
2018-01-07T06:09:37.851Z,0
2018-01-07T06:10:46.807Z,0
2018-01-07T06:11:55.735Z,0
2018-01-07T06:13:04.688Z,0
2018-01-07T06:14:14.152Z,0
2018-01-07T06:15:23.081Z,0
2018-01-07T06:16:32.619Z,0
2018-01-07T06:17:41.291Z,0
2018-01-07T06:18:50.226Z,0
2018-01-07T06:19:59.428Z,0
2018-01-07T06:21:08.103Z,0
2018-01-07T06:22:17.056Z,0
2018-01-07T06:23:26.769Z,0
2018-01-07T06:24:35.972Z,0
2018-01-07T06:25:44.642Z,0
2018-01-07T06:26:54.095Z,0
2018-01-07T06:28:03.558Z,0
2018-01-07T06:29:12.499Z,0
2018-01-07T06:30:21.951Z,0
2018-01-07T06:31:31.150Z,0
2018-01-07T06:32:40.867Z,0
2018-01-07T06:33:50.070Z,0
2018-01-07T06:34:59.009Z,0
2018-01-07T06:36:08.237Z,0
2018-01-07T06:37:17.441Z,0
2018-01-07T06:38:26.652Z,0
2018-01-07T06:39:35.593Z,0
2018-01-07T06:40:44.536Z,0
2018-01-07T06:41:54.271Z,0
2018-01-07T06:43:03.535Z,0
2018-01-07T06:44:12.731Z,0
2018-01-07T06:45:21.936Z,0
2018-01-07T06:46:31.656Z,0
2018-01-07T06:47:40.863Z,0
2018-01-07T06:48:50.058Z,0
2018-01-07T06:49:59.027Z,0
2018-01-07T06:51:07.714Z,0
2018-01-07T06:52:17.198Z,0
2018-01-07T06:53:26.132Z,0
2018-01-07T06:54:35.326Z,0
2018-01-07T06:55:45.090Z,0
2018-01-07T06:56:54.027Z,0
2018-01-07T06:58:03.234Z,0
2018-01-07T06:59:12.191Z,0
2018-01-07T07:00:21.396Z,0
2018-01-07T07:01:30.602Z,0
2018-01-07T07:02:39.800Z,0
2018-01-07T07:03:49.031Z,0
2018-01-07T07:04:57.964Z,0
2018-01-07T07:06:07.170Z,0
2018-01-07T07:07:16.124Z,0
2018-01-07T07:08:25.076Z,0
2018-01-07T07:09:34.041Z,0
2018-01-07T07:10:42.987Z,0
2018-01-07T07:11:51.922Z,4
2018-01-07T07:13:01.400Z,4
2018-01-07T07:14:10.078Z,0
2018-01-07T07:15:19.534Z,0
2018-01-07T07:16:28.752Z,4
2018-01-07T07:17:37.708Z,4
2018-01-07T07:18:47.185Z,4
2018-01-07T07:19:56.121Z,8
2018-01-07T07:21:05.080Z,4
2018-01-07T07:22:14.044Z,8
2018-01-07T07:23:22.977Z,8
2018-01-07T07:24:32.182Z,8
2018-01-07T07:25:41.895Z,12
2018-01-07T07:26:51.097Z,16
2018-01-07T07:28:00.306Z,16
2018-01-07T07:29:08.991Z,16
2018-01-07T07:30:18.452Z,16
2018-01-07T07:31:27.940Z,20
2018-01-07T07:32:36.880Z,24
2018-01-07T07:33:45.578Z,24
2018-01-07T07:34:55.043Z,28
2018-01-07T07:36:04.006Z,28
2018-01-07T07:37:12.969Z,28
2018-01-07T07:38:22.460Z,32
2018-01-07T07:39:31.413Z,40
2018-01-07T07:40:40.659Z,44
2018-01-07T07:41:50.386Z,48
2018-01-07T07:42:59.329Z,52
2018-01-07T07:44:08.265Z,56
2018-01-07T07:45:18.002Z,64
2018-01-07T07:46:27.203Z,68
2018-01-07T07:47:36.139Z,68
2018-01-07T07:48:45.653Z,72
2018-01-07T07:49:54.854Z,80
2018-01-07T07:51:04.063Z,80
2018-01-07T07:52:13.267Z,100
2018-01-07T07:53:22.217Z,112
2018-01-07T07:54:31.434Z,124
2018-01-07T07:55:40.125Z,140
2018-01-07T07:56:49.336Z,148
2018-01-07T07:57:58.027Z,168
2018-01-07T07:59:07.510Z,180
2018-01-07T08:00:16.973Z,192
2018-01-07T08:01:26.184Z,200
2018-01-07T08:02:35.147Z,208
2018-01-07T08:03:44.099Z,216
2018-01-07T08:04:53.038Z,224
2018-01-07T08:06:01.708Z,228
2018-01-07T08:07:10.658Z,240
2018-01-07T08:08:19.881Z,248
2018-01-07T08:09:28.821Z,252
2018-01-07T08:10:37.780Z,264
2018-01-07T08:11:47.507Z,276
2018-01-07T08:12:56.440Z,280
2018-01-07T08:14:05.113Z,292
2018-01-07T08:15:14.575Z,312
2018-01-07T08:16:24.324Z,324
2018-01-07T08:17:33.261Z,328
2018-01-07T08:18:42.736Z,332
2018-01-07T08:19:51.945Z,356
2018-01-07T08:21:01.168Z,384
2018-01-07T08:22:10.369Z,392
2018-01-07T08:23:19.855Z,412
2018-01-07T08:24:29.062Z,432
2018-01-07T08:25:38.273Z,428
2018-01-07T08:26:47.752Z,424
2018-01-07T08:27:56.438Z,420
2018-01-07T08:29:05.637Z,404
2018-01-07T08:30:14.865Z,392
2018-01-07T08:31:23.811Z,372
2018-01-07T08:32:33.275Z,352
2018-01-07T08:33:42.237Z,344
2018-01-07T08:34:51.175Z,344
2018-01-07T08:36:00.635Z,352
2018-01-07T08:37:09.579Z,348
2018-01-07T08:38:19.313Z,348
2018-01-07T08:39:28.794Z,352
2018-01-07T08:40:37.727Z,356
2018-01-07T08:41:46.419Z,364
2018-01-07T08:42:55.652Z,376
2018-01-07T08:44:04.858Z,380
2018-01-07T08:45:13.822Z,372
2018-01-07T08:46:23.020Z,364
2018-01-07T08:47:32.224Z,356
2018-01-07T08:48:41.176Z,368
2018-01-07T08:49:50.182Z,368
2018-01-07T08:50:59.140Z,364
2018-01-07T08:52:08.085Z,372
2018-01-07T08:53:17.635Z,388
2018-01-07T08:54:26.828Z,400
2018-01-07T08:55:36.037Z,420
2018-01-07T08:56:45.776Z,424
2018-01-07T08:57:54.748Z,424
2018-01-07T08:59:04.556Z,432
2018-01-07T09:00:13.767Z,420
2018-01-07T09:01:23.059Z,396
2018-01-07T09:02:32.276Z,400
2018-01-07T09:03:41.746Z,432
2018-01-07T09:04:50.961Z,440
2018-01-07T09:06:00.181Z,468
2018-01-07T09:07:09.135Z,452
2018-01-07T09:08:18.366Z,456
2018-01-07T09:09:27.850Z,468
2018-01-07T09:10:37.075Z,468
2018-01-07T09:11:46.285Z,448
2018-01-07T09:12:55.563Z,472
2018-01-07T09:14:04.534Z,472
2018-01-07T09:15:13.477Z,528
2018-01-07T09:16:22.444Z,584
2018-01-07T09:17:31.387Z,604
2018-01-07T09:18:40.649Z,620
2018-01-07T09:19:50.077Z,612
2018-01-07T09:20:59.546Z,600
2018-01-07T09:22:08.223Z,608
2018-01-07T09:23:17.425Z,568
2018-01-07T09:24:26.621Z,556
2018-01-07T09:25:35.585Z,560
2018-01-07T09:26:44.838Z,588
2018-01-07T09:27:53.827Z,632
2018-01-07T09:29:03.066Z,636
2018-01-07T09:30:12.285Z,672
2018-01-07T09:31:21.506Z,688
2018-01-07T09:32:30.721Z,700
2018-01-07T09:33:39.921Z,724
2018-01-07T09:34:48.857Z,776
2018-01-07T09:35:57.566Z,852
2018-01-07T09:37:06.787Z,856
2018-01-07T09:38:15.740Z,876
2018-01-07T09:39:24.679Z,900
2018-01-07T09:40:33.901Z,900
2018-01-07T09:41:43.125Z,844
2018-01-07T09:42:52.379Z,764
2018-01-07T09:44:01.601Z,700
2018-01-07T09:45:10.547Z,620
2018-01-07T09:46:20.318Z,584
2018-01-07T09:47:29.535Z,588
2018-01-07T09:48:38.503Z,600
2018-01-07T09:49:47.466Z,588
2018-01-07T09:50:56.405Z,584
2018-01-07T09:52:05.896Z,560
2018-01-07T09:53:14.855Z,556
2018-01-07T09:54:24.325Z,552
2018-01-07T09:55:33.264Z,548
2018-01-07T09:56:42.505Z,552
2018-01-07T09:57:52.243Z,616
2018-01-07T09:59:01.709Z,640
2018-01-07T10:00:10.924Z,756
2018-01-07T10:01:20.119Z,752
2018-01-07T10:02:29.852Z,776
2018-01-07T10:03:39.060Z,792
2018-01-07T10:04:48.270Z,828
2018-01-07T10:05:57.244Z,888
2018-01-07T10:07:06.191Z,884
2018-01-07T10:08:15.416Z,800
2018-01-07T10:09:24.676Z,772
2018-01-07T10:10:33.883Z,816
2018-01-07T10:11:43.125Z,768
2018-01-07T10:12:52.103Z,752
2018-01-07T10:14:00.783Z,712
2018-01-07T10:15:09.736Z,720
2018-01-07T10:16:18.683Z,656
2018-01-07T10:17:27.375Z,592
2018-01-07T10:18:36.339Z,496
2018-01-07T10:19:45.827Z,460
2018-01-07T10:20:54.506Z,460
2018-01-07T10:22:03.190Z,412
2018-01-07T10:23:12.133Z,424
2018-01-07T10:24:20.820Z,436
2018-01-07T10:25:32.439Z,432
2018-01-07T10:26:42.770Z,440
2018-01-07T10:27:52.053Z,452
2018-01-07T10:29:01.513Z,448
2018-01-07T10:30:10.188Z,516
2018-01-07T10:31:19.720Z,556
2018-01-07T10:32:28.932Z,628
2018-01-07T10:33:37.614Z,716
2018-01-07T10:34:46.614Z,740
2018-01-07T10:35:56.094Z,784
2018-01-07T10:37:05.053Z,828
2018-01-07T10:38:14.351Z,844
2018-01-07T10:39:24.450Z,824
2018-01-07T10:40:34.259Z,880
2018-01-07T10:41:43.395Z,872
2018-01-07T10:42:52.671Z,804
2018-01-07T10:44:02.152Z,796
2018-01-07T10:45:11.397Z,676
2018-01-07T10:46:20.221Z,584
2018-01-07T10:47:30.004Z,576
2018-01-07T10:48:39.359Z,612
2018-01-07T10:49:48.901Z,556
2018-01-07T10:50:57.859Z,552
2018-01-07T10:52:06.922Z,556
2018-01-07T10:53:15.617Z,552
2018-01-07T10:54:24.897Z,544
2018-01-07T10:55:33.601Z,516
2018-01-07T10:56:42.536Z,480
2018-01-07T10:57:51.799Z,488
2018-01-07T10:59:00.750Z,496
2018-01-07T11:00:09.969Z,540
2018-01-07T11:01:19.451Z,576
2018-01-07T11:02:28.396Z,560
2018-01-07T11:03:37.405Z,552
2018-01-07T11:04:46.357Z,580
2018-01-07T11:05:55.844Z,592
2018-01-07T11:07:05.075Z,580
2018-01-07T11:08:14.000Z,652
2018-01-07T11:09:23.236Z,692
2018-01-07T11:10:32.192Z,772
2018-01-07T11:11:41.134Z,824
2018-01-07T11:12:51.174Z,836
2018-01-07T11:13:59.917Z,892
2018-01-07T11:15:09.775Z,900
2018-01-07T11:16:18.980Z,940
2018-01-07T11:17:28.763Z,904
2018-01-07T11:18:37.716Z,836
2018-01-07T11:19:47.485Z,764
2018-01-07T11:20:56.919Z,724
2018-01-07T11:22:05.880Z,740
2018-01-07T11:23:15.642Z,816
2018-01-07T11:24:26.178Z,832
2018-01-07T11:25:35.213Z,772
2018-01-07T11:26:46.275Z,724
2018-01-07T11:27:55.516Z,700
2018-01-07T11:29:05.024Z,700
2018-01-07T11:30:15.250Z,684
2018-01-07T11:31:24.749Z,660
2018-01-07T11:32:34.573Z,652
2018-01-07T11:33:43.792Z,592
2018-01-07T11:34:52.835Z,580
2018-01-07T11:36:02.329Z,612
2018-01-07T11:37:11.280Z,620
2018-01-07T11:38:20.982Z,652
2018-01-07T11:39:31.634Z,696
2018-01-07T11:40:41.824Z,704
2018-01-07T11:41:51.036Z,736
2018-01-07T11:42:59.720Z,744
2018-01-07T11:44:08.674Z,764
2018-01-07T11:45:18.147Z,804
2018-01-07T11:46:27.424Z,856
2018-01-07T11:47:36.884Z,888
2018-01-07T11:48:46.567Z,940
2018-01-07T11:49:55.511Z,968
2018-01-07T11:51:04.247Z,952
2018-01-07T11:52:13.265Z,940
2018-01-07T11:53:22.737Z,932
2018-01-07T11:54:31.944Z,928
2018-01-07T11:55:40.934Z,916
2018-01-07T11:56:50.665Z,880
2018-01-07T11:57:59.350Z,836
2018-01-07T11:59:08.863Z,768
2018-01-07T12:00:18.326Z,744
2018-01-07T12:01:27.280Z,724
2018-01-07T12:02:36.509Z,728
2018-01-07T12:03:45.722Z,756
2018-01-07T12:04:54.683Z,788
2018-01-07T12:06:03.914Z,792
2018-01-07T12:07:13.138Z,760
2018-01-07T12:08:22.341Z,792
2018-01-07T12:09:31.300Z,808
2018-01-07T12:10:40.844Z,760
2018-01-07T12:11:50.050Z,764
2018-01-07T12:12:59.002Z,732
2018-01-07T12:14:08.745Z,700
2018-01-07T12:15:17.711Z,688
2018-01-07T12:16:26.715Z,664
2018-01-07T12:17:35.666Z,672
2018-01-07T12:18:44.626Z,712
2018-01-07T12:19:53.590Z,704
2018-01-07T12:21:02.541Z,692
2018-01-07T12:22:11.221Z,668
2018-01-07T12:23:20.698Z,640
2018-01-07T12:24:29.644Z,620
2018-01-07T12:25:38.326Z,612
2018-01-07T12:26:47.274Z,616
2018-01-07T12:27:56.212Z,632
2018-01-07T12:29:05.689Z,656
2018-01-07T12:30:15.427Z,652
2018-01-07T12:31:24.642Z,652
2018-01-07T12:32:33.911Z,656
2018-01-07T12:33:43.607Z,644
2018-01-07T12:34:52.586Z,652
2018-01-07T12:36:01.532Z,648
2018-01-07T12:37:10.758Z,660
2018-01-07T12:38:19.701Z,660
2018-01-07T12:39:29.258Z,688
2018-01-07T12:40:39.197Z,688
2018-01-07T12:41:48.149Z,696
2018-01-07T12:42:57.633Z,712
2018-01-07T12:44:06.837Z,708
2018-01-07T12:45:16.041Z,700
2018-01-07T12:46:25.241Z,684
2018-01-07T12:47:34.185Z,704
2018-01-07T12:48:43.397Z,724
2018-01-07T12:49:52.121Z,724
2018-01-07T12:51:01.301Z,728
2018-01-07T12:52:09.991Z,724
2018-01-07T12:53:18.950Z,700
2018-01-07T12:54:27.916Z,716
2018-01-07T12:55:36.608Z,704
2018-01-07T12:56:45.548Z,680
2018-01-07T12:57:54.759Z,704
2018-01-07T12:59:03.982Z,716
2018-01-07T13:00:12.970Z,728
2018-01-07T13:01:21.656Z,732
2018-01-07T13:02:30.879Z,732
2018-01-07T13:03:39.862Z,708
2018-01-07T13:04:49.370Z,712
2018-01-07T13:05:58.330Z,720
2018-01-07T13:07:08.339Z,720
2018-01-07T13:08:17.562Z,732
2018-01-07T13:09:26.772Z,732
2018-01-07T13:10:35.726Z,736
2018-01-07T13:11:44.944Z,752
2018-01-07T13:12:54.153Z,764
2018-01-07T13:14:03.113Z,760
2018-01-07T13:15:12.066Z,744
2018-01-07T13:16:21.272Z,756
2018-01-07T13:17:30.478Z,748
2018-01-07T13:18:39.457Z,748
2018-01-07T13:19:48.662Z,744
2018-01-07T13:20:57.618Z,748
2018-01-07T13:22:06.583Z,752
2018-01-07T13:23:15.792Z,752
2018-01-07T13:24:25.274Z,764
2018-01-07T13:25:34.221Z,756
2018-01-07T13:26:43.183Z,756
2018-01-07T13:27:52.165Z,748
2018-01-07T13:29:01.372Z,744
2018-01-07T13:30:10.850Z,728
2018-01-07T13:31:20.339Z,720
2018-01-07T13:32:29.560Z,704
2018-01-07T13:33:38.776Z,696
2018-01-07T13:34:47.726Z,688
2018-01-07T13:35:57.211Z,680
2018-01-07T13:37:06.437Z,672
2018-01-07T13:38:15.906Z,668
2018-01-07T13:39:25.374Z,676
2018-01-07T13:40:34.589Z,668
2018-01-07T13:41:43.533Z,664
2018-01-07T13:42:52.757Z,668
2018-01-07T13:44:01.701Z,664
2018-01-07T13:45:10.929Z,660
2018-01-07T13:46:19.894Z,656
2018-01-07T13:47:29.348Z,644
2018-01-07T13:48:38.542Z,636
2018-01-07T13:49:47.758Z,624
2018-01-07T13:50:56.703Z,620
2018-01-07T13:52:06.173Z,612
2018-01-07T13:53:15.739Z,612
2018-01-07T13:54:25.212Z,604
2018-01-07T13:55:34.415Z,588
2018-01-07T13:56:43.365Z,592
2018-01-07T13:57:52.338Z,576
2018-01-07T13:59:01.029Z,564
2018-01-07T14:00:10.962Z,552
2018-01-07T14:01:20.397Z,544
2018-01-07T14:02:29.602Z,532
2018-01-07T14:03:38.538Z,516
2018-01-07T14:04:47.734Z,496
2018-01-07T14:05:56.972Z,484
2018-01-07T14:07:06.188Z,472
2018-01-07T14:08:15.387Z,456
2018-01-07T14:09:24.388Z,440
2018-01-07T14:10:33.628Z,428
2018-01-07T14:11:42.601Z,408
2018-01-07T14:12:51.278Z,388
2018-01-07T14:14:00.219Z,368
2018-01-07T14:15:09.683Z,368
2018-01-07T14:16:18.615Z,380
2018-01-07T14:17:27.373Z,392
2018-01-07T14:18:36.063Z,396
2018-01-07T14:19:44.748Z,388
2018-01-07T14:20:53.953Z,376
2018-01-07T14:22:03.172Z,360
2018-01-07T14:23:12.925Z,352
2018-01-07T14:24:22.388Z,340
2018-01-07T14:25:31.330Z,324
2018-01-07T14:26:40.290Z,316
2018-01-07T14:27:49.230Z,308
2018-01-07T14:28:58.970Z,300
2018-01-07T14:30:08.232Z,284
2018-01-07T14:31:17.450Z,264
2018-01-07T14:32:26.649Z,248
2018-01-07T14:33:35.604Z,232
2018-01-07T14:34:45.064Z,212
2018-01-07T14:35:54.345Z,196
2018-01-07T14:37:03.683Z,188
2018-01-07T14:38:12.372Z,184
2018-01-07T14:39:21.568Z,180
2018-01-07T14:40:30.789Z,172
2018-01-07T14:41:40.038Z,168
2018-01-07T14:42:50.473Z,164
2018-01-07T14:43:59.544Z,160
2018-01-07T14:45:08.219Z,152
2018-01-07T14:46:17.183Z,148
2018-01-07T14:47:26.210Z,144
2018-01-07T14:48:35.429Z,144
2018-01-07T14:49:44.375Z,136
2018-01-07T14:50:53.574Z,136
2018-01-07T14:52:02.265Z,136
2018-01-07T14:53:11.478Z,128
2018-01-07T14:54:20.673Z,128
2018-01-07T14:55:30.164Z,124
2018-01-07T14:56:39.389Z,116
2018-01-07T14:57:48.317Z,120
2018-01-07T14:58:57.773Z,116
2018-01-07T15:00:07.233Z,112
2018-01-07T15:01:16.426Z,108
2018-01-07T15:02:25.366Z,100
2018-01-07T15:03:34.815Z,100
2018-01-07T15:04:43.676Z,96
2018-01-07T15:05:52.773Z,96
2018-01-07T15:07:02.020Z,96
2018-01-07T15:08:10.843Z,88
2018-01-07T15:09:19.817Z,84
2018-01-07T15:10:28.754Z,84
2018-01-07T15:11:37.442Z,76
2018-01-07T15:12:46.680Z,72
2018-01-07T15:13:55.695Z,72
2018-01-07T15:15:04.792Z,68
2018-01-07T15:16:13.474Z,68
2018-01-07T15:17:22.676Z,68
2018-01-07T15:18:31.880Z,64
2018-01-07T15:19:40.568Z,64
2018-01-07T15:20:50.291Z,60
2018-01-07T15:21:59.492Z,56
2018-01-07T15:23:08.455Z,52
2018-01-07T15:24:17.616Z,52
2018-01-07T15:25:26.558Z,48
2018-01-07T15:26:35.769Z,48
2018-01-07T15:27:45.233Z,48
2018-01-07T15:28:54.201Z,44
2018-01-07T15:30:03.416Z,40
2018-01-07T15:31:12.367Z,40
2018-01-07T15:32:21.320Z,36
2018-01-07T15:33:30.252Z,32
2018-01-07T15:34:39.190Z,32
2018-01-07T15:35:48.650Z,32
2018-01-07T15:36:57.583Z,28
2018-01-07T15:38:06.785Z,24
2018-01-07T15:39:15.723Z,24
2018-01-07T15:40:24.660Z,24
2018-01-07T15:41:33.622Z,24
2018-01-07T15:42:42.852Z,20
2018-01-07T15:43:51.797Z,20
2018-01-07T15:45:00.498Z,16
2018-01-07T15:46:10.037Z,16
2018-01-07T15:47:19.500Z,12
2018-01-07T15:48:28.699Z,12
2018-01-07T15:49:38.008Z,12
2018-01-07T15:50:46.973Z,12
2018-01-07T15:51:55.918Z,12
2018-01-07T15:53:05.388Z,8
2018-01-07T15:54:14.908Z,8
2018-01-07T15:55:23.848Z,4
2018-01-07T15:56:32.799Z,4
2018-01-07T15:57:41.999Z,8
2018-01-07T15:58:50.685Z,4
2018-01-07T15:59:59.355Z,4
2018-01-07T16:01:08.624Z,4
2018-01-07T16:02:17.823Z,4
2018-01-07T16:03:26.771Z,4
2018-01-07T16:04:36.509Z,0
2018-01-07T16:05:45.978Z,0
2018-01-07T16:06:55.462Z,0
2018-01-07T16:08:04.656Z,0
2018-01-07T16:09:13.408Z,0
2018-01-07T16:10:22.612Z,0
2018-01-07T16:11:31.807Z,0
2018-01-07T16:12:40.498Z,0
2018-01-07T16:13:49.961Z,0
2018-01-07T16:14:58.908Z,0
2018-01-07T16:16:08.115Z,0
2018-01-07T16:17:17.338Z,0
2018-01-07T16:18:26.544Z,0
2018-01-07T16:19:36.002Z,0
2018-01-07T16:20:45.243Z,0
2018-01-07T16:21:54.974Z,0
2018-01-07T16:23:04.173Z,0
2018-01-07T16:24:13.389Z,0
2018-01-07T16:25:22.851Z,0
2018-01-07T16:26:31.519Z,0
2018-01-07T16:27:40.468Z,0
2018-01-07T16:28:49.686Z,0